sensor_id;sensor_type;location;lat;lon;timestamp;pressure;altitude;pressure_sealevel;temperature;humidity
75585;BME280;64162;53.508;10.476;2024-03-25T00:00:22;99520.97;;;11.01;65.00
75585;BME280;64162;53.508;10.476;2024-03-25T00:02:50;99518.56;;;10.99;65.22
75585;BME280;64162;53.508;10.476;2024-03-25T00:05:16;99534.91;;;10.51;65.91
75585;BME280;64162;53.508;10.476;2024-03-25T00:07:47;99534.03;;;10.93;65.30
75585;BME280;64162;53.508;10.476;2024-03-25T00:10:13;99533.34;;;10.56;66.12
75585;BME280;64162;53.508;10.476;2024-03-25T00:12:38;99524.97;;;10.75;65.88
75585;BME280;64162;53.508;10.476;2024-03-25T00:15:04;99536.31;;;10.53;65.77
75585;BME280;64162;53.508;10.476;2024-03-25T00:17:30;99543.34;;;10.81;64.61
75585;BME280;64162;53.508;10.476;2024-03-25T00:19:56;99550.19;;;11.16;64.58
75585;BME280;64162;53.508;10.476;2024-03-25T00:22:22;99545.31;;;10.57;65.36
75585;BME280;64162;53.508;10.476;2024-03-25T00:24:48;99550.34;;;10.87;63.49
75585;BME280;64162;53.508;10.476;2024-03-25T00:27:14;99553.44;;;10.54;64.86
75585;BME280;64162;53.508;10.476;2024-03-25T00:29:40;99550.63;;;10.70;64.55
75585;BME280;64162;53.508;10.476;2024-03-25T00:32:06;99562.31;;;10.66;65.10
75585;BME280;64162;53.508;10.476;2024-03-25T00:34:33;99564.34;;;11.20;64.16
75585;BME280;64162;53.508;10.476;2024-03-25T00:36:59;99557.75;;;10.90;64.45
75585;BME280;64162;53.508;10.476;2024-03-25T00:39:25;99560.63;;;11.01;64.30
75585;BME280;64162;53.508;10.476;2024-03-25T00:41:54;99561.75;;;11.20;63.44
75585;BME280;64162;53.508;10.476;2024-03-25T00:44:20;99564.16;;;10.94;64.05
75585;BME280;64162;53.508;10.476;2024-03-25T00:46:46;99564.69;;;11.17;63.58
75585;BME280;64162;53.508;10.476;2024-03-25T00:49:11;99570.13;;;10.94;64.65
75585;BME280;64162;53.508;10.476;2024-03-25T00:51:37;99577.41;;;11.05;63.66
75585;BME280;64162;53.508;10.476;2024-03-25T00:54:03;99580.66;;;10.93;64.53
75585;BME280;64162;53.508;10.476;2024-03-25T00:56:30;99586.81;;;10.92;63.29
75585;BME280;64162;53.508;10.476;2024-03-25T00:58:56;99575.22;;;11.09;63.95
75585;BME280;64162;53.508;10.476;2024-03-25T01:01:23;99581.75;;;11.33;62.56
75585;BME280;64162;53.508;10.476;2024-03-25T01:03:49;99585.25;;;10.69;64.58
75585;BME280;64162;53.508;10.476;2024-03-25T01:06:15;99591.06;;;10.50;64.78
75585;BME280;64162;53.508;10.476;2024-03-25T01:08:40;99585.84;;;10.71;64.21
75585;BME280;64162;53.508;10.476;2024-03-25T01:11:06;99575.25;;;10.66;65.08
75585;BME280;64162;53.508;10.476;2024-03-25T01:13:32;99583.69;;;10.32;65.02
75585;BME280;64162;53.508;10.476;2024-03-25T01:15:57;99602.38;;;10.49;64.93
75585;BME280;64162;53.508;10.476;2024-03-25T01:18:23;99605.03;;;10.98;64.04
75585;BME280;64162;53.508;10.476;2024-03-25T01:20:48;99600.38;;;10.66;65.01
75585;BME280;64162;53.508;10.476;2024-03-25T01:23:15;99605.03;;;10.77;64.49
75585;BME280;64162;53.508;10.476;2024-03-25T01:25:41;99600.66;;;11.27;62.60
75585;BME280;64162;53.508;10.476;2024-03-25T01:28:06;99599.31;;;10.60;63.74
75585;BME280;64162;53.508;10.476;2024-03-25T01:30:32;99593.22;;;11.17;63.63
75585;BME280;64162;53.508;10.476;2024-03-25T01:33:01;99607.78;;;11.46;62.58
75585;BME280;64162;53.508;10.476;2024-03-25T01:35:26;99592.50;;;11.02;63.43
75585;BME280;64162;53.508;10.476;2024-03-25T01:37:52;99605.50;;;11.08;64.12
75585;BME280;64162;53.508;10.476;2024-03-25T01:40:18;99608.28;;;10.43;64.73
75585;BME280;64162;53.508;10.476;2024-03-25T01:42:55;99601.53;;;11.12;64.19
75585;BME280;64162;53.508;10.476;2024-03-25T01:45:20;99613.84;;;10.83;63.76
75585;BME280;64162;53.508;10.476;2024-03-25T01:47:46;99604.59;;;11.16;63.52
75585;BME280;64162;53.508;10.476;2024-03-25T01:50:12;99620.25;;;11.08;63.02
75585;BME280;64162;53.508;10.476;2024-03-25T01:52:39;99618.59;;;10.22;65.84
75585;BME280;64162;53.508;10.476;2024-03-25T01:55:07;99634.66;;;11.17;63.79
75585;BME280;64162;53.508;10.476;2024-03-25T01:57:35;99618.84;;;10.63;64.64
75585;BME280;64162;53.508;10.476;2024-03-25T02:00:00;99624.03;;;11.33;63.26
75585;BME280;64162;53.508;10.476;2024-03-25T02:02:33;99633.47;;;10.70;64.45
75585;BME280;64162;53.508;10.476;2024-03-25T02:05:01;99627.41;;;11.06;62.70
75585;BME280;64162;53.508;10.476;2024-03-25T02:07:28;99634.78;;;11.30;64.11
75585;BME280;64162;53.508;10.476;2024-03-25T02:09:55;99638.25;;;11.16;63.70
75585;BME280;64162;53.508;10.476;2024-03-25T02:12:21;99648.06;;;10.78;64.82
75585;BME280;64162;53.508;10.476;2024-03-25T02:14:47;99642.22;;;10.69;65.26
75585;BME280;64162;53.508;10.476;2024-03-25T02:17:12;99655.19;;;10.91;64.03
75585;BME280;64162;53.508;10.476;2024-03-25T02:19:39;99656.59;;;10.36;66.07
75585;BME280;64162;53.508;10.476;2024-03-25T02:22:05;99655.84;;;10.78;64.77
75585;BME280;64162;53.508;10.476;2024-03-25T02:24:31;99637.63;;;10.50;64.97
75585;BME280;64162;53.508;10.476;2024-03-25T02:26:58;99646.53;;;11.05;64.33
75585;BME280;64162;53.508;10.476;2024-03-25T02:29:33;99656.94;;;10.69;65.75
75585;BME280;64162;53.508;10.476;2024-03-25T02:31:59;99664.22;;;10.80;64.99
75585;BME280;64162;53.508;10.476;2024-03-25T02:34:24;99671.94;;;10.95;63.78
75585;BME280;64162;53.508;10.476;2024-03-25T02:36:50;99670.84;;;11.32;63.48
75585;BME280;64162;53.508;10.476;2024-03-25T02:39:17;99674.50;;;10.73;65.42
75585;BME280;64162;53.508;10.476;2024-03-25T02:41:43;99670.69;;;11.12;64.95
75585;BME280;64162;53.508;10.476;2024-03-25T02:44:09;99676.59;;;11.27;64.05
75585;BME280;64162;53.508;10.476;2024-03-25T02:46:34;99662.66;;;11.28;63.93
75585;BME280;64162;53.508;10.476;2024-03-25T02:49:00;99673.28;;;10.69;64.68
75585;BME280;64162;53.508;10.476;2024-03-25T02:51:25;99678.84;;;11.09;64.16
75585;BME280;64162;53.508;10.476;2024-03-25T02:53:51;99683.28;;;11.15;64.62
75585;BME280;64162;53.508;10.476;2024-03-25T02:56:16;99688.41;;;11.08;64.13
75585;BME280;64162;53.508;10.476;2024-03-25T02:58:42;99688.06;;;11.39;63.91
75585;BME280;64162;53.508;10.476;2024-03-25T03:01:07;99687.47;;;10.95;65.04
75585;BME280;64162;53.508;10.476;2024-03-25T03:03:33;99697.81;;;11.37;63.31
75585;BME280;64162;53.508;10.476;2024-03-25T03:05:58;99693.75;;;11.77;62.77
75585;BME280;64162;53.508;10.476;2024-03-25T03:08:24;99692.28;;;11.19;64.74
75585;BME280;64162;53.508;10.476;2024-03-25T03:10:50;99695.34;;;11.50;63.79
75585;BME280;64162;53.508;10.476;2024-03-25T03:13:15;99711.03;;;11.00;65.07
75585;BME280;64162;53.508;10.476;2024-03-25T03:15:44;99712.97;;;10.91;64.59
75585;BME280;64162;53.508;10.476;2024-03-25T03:18:11;99712.38;;;11.17;64.77
75585;BME280;64162;53.508;10.476;2024-03-25T03:20:36;99707.69;;;11.27;64.06
75585;BME280;64162;53.508;10.476;2024-03-25T03:23:02;99709.47;;;11.48;63.06
75585;BME280;64162;53.508;10.476;2024-03-25T03:25:27;99724.38;;;11.18;63.00
75585;BME280;64162;53.508;10.476;2024-03-25T03:27:55;99708.53;;;11.77;61.60
75585;BME280;64162;53.508;10.476;2024-03-25T03:30:21;99739.97;;;10.67;64.14
75585;BME280;64162;53.508;10.476;2024-03-25T03:32:47;99725.66;;;11.29;63.10
75585;BME280;64162;53.508;10.476;2024-03-25T03:35:12;99733.69;;;10.91;64.48
75585;BME280;64162;53.508;10.476;2024-03-25T03:37:38;99742.75;;;11.66;62.16
75585;BME280;64162;53.508;10.476;2024-03-25T03:40:04;99755.34;;;11.05;62.43
75585;BME280;64162;53.508;10.476;2024-03-25T03:42:33;99748.53;;;10.68;65.13
75585;BME280;64162;53.508;10.476;2024-03-25T03:44:58;99758.97;;;11.10;63.34
75585;BME280;64162;53.508;10.476;2024-03-25T03:47:24;99771.13;;;10.59;64.58
75585;BME280;64162;53.508;10.476;2024-03-25T03:49:49;99775.28;;;10.90;64.30
75585;BME280;64162;53.508;10.476;2024-03-25T03:52:15;99762.13;;;10.70;64.37
75585;BME280;64162;53.508;10.476;2024-03-25T03:54:40;99776.06;;;11.05;63.92
75585;BME280;64162;53.508;10.476;2024-03-25T03:57:06;99776.13;;;11.11;62.73
75585;BME280;64162;53.508;10.476;2024-03-25T03:59:31;99775.69;;;11.08;63.63
75585;BME280;64162;53.508;10.476;2024-03-25T04:01:57;99787.66;;;10.58;65.50
75585;BME280;64162;53.508;10.476;2024-03-25T04:04:23;99796.88;;;11.11;63.24
75585;BME280;64162;53.508;10.476;2024-03-25T04:06:48;99801.91;;;10.84;63.95
75585;BME280;64162;53.508;10.476;2024-03-25T04:09:14;99802.56;;;11.64;61.83
75585;BME280;64162;53.508;10.476;2024-03-25T04:11:40;99808.97;;;10.75;63.90
75585;BME280;64162;53.508;10.476;2024-03-25T04:14:05;99809.53;;;11.42;63.43
75585;BME280;64162;53.508;10.476;2024-03-25T04:16:31;99807.06;;;11.34;62.69
75585;BME280;64162;53.508;10.476;2024-03-25T04:18:57;99820.28;;;11.03;64.37
75585;BME280;64162;53.508;10.476;2024-03-25T04:21:23;99811.94;;;11.08;63.08
75585;BME280;64162;53.508;10.476;2024-03-25T04:23:49;99822.88;;;10.89;64.45
75585;BME280;64162;53.508;10.476;2024-03-25T04:26:17;99821.81;;;10.83;64.35
75585;BME280;64162;53.508;10.476;2024-03-25T04:28:43;99831.16;;;11.13;63.15
75585;BME280;64162;53.508;10.476;2024-03-25T04:31:09;99823.94;;;11.09;63.36
75585;BME280;64162;53.508;10.476;2024-03-25T04:33:35;99829.78;;;11.17;64.26
75585;BME280;64162;53.508;10.476;2024-03-25T04:36:00;99835.69;;;11.26;62.95
75585;BME280;64162;53.508;10.476;2024-03-25T04:38:26;99837.03;;;11.22;63.20
75585;BME280;64162;53.508;10.476;2024-03-25T04:40:52;99846.50;;;11.30;63.54
75585;BME280;64162;53.508;10.476;2024-03-25T04:43:17;99850.41;;;10.90;64.19
75585;BME280;64162;53.508;10.476;2024-03-25T04:45:43;99845.09;;;11.12;63.89
75585;BME280;64162;53.508;10.476;2024-03-25T04:48:08;99849.94;;;11.01;64.23
75585;BME280;64162;53.508;10.476;2024-03-25T04:50:35;99857.81;;;10.78;63.93
75585;BME280;64162;53.508;10.476;2024-03-25T04:53:01;99860.50;;;10.85;63.94
75585;BME280;64162;53.508;10.476;2024-03-25T04:55:27;99870.84;;;10.70;64.43
75585;BME280;64162;53.508;10.476;2024-03-25T04:57:52;99870.03;;;10.99;63.46
75585;BME280;64162;53.508;10.476;2024-03-25T05:00:18;99863.78;;;10.93;63.37
75585;BME280;64162;53.508;10.476;2024-03-25T05:02:44;99877.13;;;11.41;61.68
75585;BME280;64162;53.508;10.476;2024-03-25T05:05:09;99875.59;;;11.32;61.56
75585;BME280;64162;53.508;10.476;2024-03-25T05:07:35;99875.84;;;11.01;63.20
75585;BME280;64162;53.508;10.476;2024-03-25T05:10:03;99883.88;;;10.76;64.39
75585;BME280;64162;53.508;10.476;2024-03-25T05:12:28;99884.84;;;11.19;62.52
75585;BME280;64162;53.508;10.476;2024-03-25T05:14:56;99889.50;;;11.09;62.87
75585;BME280;64162;53.508;10.476;2024-03-25T05:17:22;99887.09;;;11.08;63.48
75585;BME280;64162;53.508;10.476;2024-03-25T05:19:47;99891.56;;;11.50;62.27
75585;BME280;64162;53.508;10.476;2024-03-25T05:22:13;99885.72;;;11.12;63.03
75585;BME280;64162;53.508;10.476;2024-03-25T05:24:38;99895.41;;;10.89;64.38
75585;BME280;64162;53.508;10.476;2024-03-25T05:27:04;99893.44;;;11.20;62.49
75585;BME280;64162;53.508;10.476;2024-03-25T05:29:30;99893.56;;;11.33;62.67
75585;BME280;64162;53.508;10.476;2024-03-25T05:31:57;99893.84;;;11.24;61.90
75585;BME280;64162;53.508;10.476;2024-03-25T05:34:24;99900.47;;;10.97;63.17
75585;BME280;64162;53.508;10.476;2024-03-25T05:36:49;99905.75;;;11.18;62.70
75585;BME280;64162;53.508;10.476;2024-03-25T05:39:15;99899.41;;;11.21;62.90
75585;BME280;64162;53.508;10.476;2024-03-25T05:41:41;99900.47;;;11.26;62.55
75585;BME280;64162;53.508;10.476;2024-03-25T05:44:06;99919.78;;;10.94;62.86
75585;BME280;64162;53.508;10.476;2024-03-25T05:46:32;99918.97;;;11.23;62.57
75585;BME280;64162;53.508;10.476;2024-03-25T05:48:57;99923.16;;;11.24;62.31
75585;BME280;64162;53.508;10.476;2024-03-25T05:51:26;99924.25;;;11.00;64.04
75585;BME280;64162;53.508;10.476;2024-03-25T05:53:51;99916.84;;;10.83;63.07
75585;BME280;64162;53.508;10.476;2024-03-25T05:56:17;99919.47;;;11.33;62.69
75585;BME280;64162;53.508;10.476;2024-03-25T05:58:43;99933.94;;;11.42;61.53
75585;BME280;64162;53.508;10.476;2024-03-25T06:01:08;99934.69;;;11.36;61.33
75585;BME280;64162;53.508;10.476;2024-03-25T06:03:34;99928.41;;;11.45;61.84
75585;BME280;64162;53.508;10.476;2024-03-25T06:05:59;99930.34;;;11.73;60.72
75585;BME280;64162;53.508;10.476;2024-03-25T06:08:25;99944.59;;;11.33;61.87
75585;BME280;64162;53.508;10.476;2024-03-25T06:10:51;99948.91;;;11.11;62.71
75585;BME280;64162;53.508;10.476;2024-03-25T06:13:17;99940.78;;;11.65;61.52
75585;BME280;64162;53.508;10.476;2024-03-25T06:15:43;99952.56;;;11.67;61.67
75585;BME280;64162;53.508;10.476;2024-03-25T06:18:08;99951.97;;;11.80;61.17
75585;BME280;64162;53.508;10.476;2024-03-25T06:20:34;99945.53;;;11.76;59.98
75585;BME280;64162;53.508;10.476;2024-03-25T06:23:00;99953.00;;;11.35;59.96
75585;BME280;64162;53.508;10.476;2024-03-25T06:25:26;99957.78;;;11.82;60.70
75585;BME280;64162;53.508;10.476;2024-03-25T06:27:53;99953.28;;;11.25;59.85
75585;BME280;64162;53.508;10.476;2024-03-25T06:30:18;99950.50;;;11.12;62.62
75585;BME280;64162;53.508;10.476;2024-03-25T06:33:02;99952.59;;;11.82;59.34
75585;BME280;64162;53.508;10.476;2024-03-25T06:35:46;99957.47;;;11.41;60.44
75585;BME280;64162;53.508;10.476;2024-03-25T06:38:12;99967.50;;;11.29;61.99
75585;BME280;64162;53.508;10.476;2024-03-25T06:40:38;99983.47;;;11.18;61.57
75585;BME280;64162;53.508;10.476;2024-03-25T06:43:04;99973.81;;;11.12;61.95
75585;BME280;64162;53.508;10.476;2024-03-25T06:45:30;99971.31;;;10.74;62.22
75585;BME280;64162;53.508;10.476;2024-03-25T06:47:56;99977.47;;;11.47;62.44
75585;BME280;64162;53.508;10.476;2024-03-25T06:50:23;99980.97;;;10.95;62.50
75585;BME280;64162;53.508;10.476;2024-03-25T06:52:49;99978.91;;;11.49;60.48
75585;BME280;64162;53.508;10.476;2024-03-25T06:55:15;99983.19;;;11.57;61.74
75585;BME280;64162;53.508;10.476;2024-03-25T06:57:42;99975.34;;;12.01;59.92
75585;BME280;64162;53.508;10.476;2024-03-25T07:00:08;99987.41;;;11.43;61.04
75585;BME280;64162;53.508;10.476;2024-03-25T07:02:41;99993.31;;;11.08;60.41
75585;BME280;64162;53.508;10.476;2024-03-25T07:05:07;100012.06;;;11.69;60.98
75585;BME280;64162;53.508;10.476;2024-03-25T07:07:33;100009.03;;;11.80;61.19
75585;BME280;64162;53.508;10.476;2024-03-25T07:10:02;100014.84;;;11.23;62.56
75585;BME280;64162;53.508;10.476;2024-03-25T07:12:27;100013.59;;;11.48;61.48
75585;BME280;64162;53.508;10.476;2024-03-25T07:14:54;100011.59;;;11.94;60.39
75585;BME280;64162;53.508;10.476;2024-03-25T07:17:19;100016.94;;;12.71;65.45
75585;BME280;64162;53.508;10.476;2024-03-25T07:19:49;100021.69;;;14.12;60.37
75585;BME280;64162;53.508;10.476;2024-03-25T07:22:15;100014.66;;;15.44;53.69
75585;BME280;64162;53.508;10.476;2024-03-25T07:24:41;100021.03;;;15.61;50.77
75585;BME280;64162;53.508;10.476;2024-03-25T07:27:06;100028.78;;;13.36;53.82
75585;BME280;64162;53.508;10.476;2024-03-25T07:29:33;100022.22;;;13.94;54.33
75585;BME280;64162;53.508;10.476;2024-03-25T07:31:59;100040.97;;;11.51;59.81
75585;BME280;64162;53.508;10.476;2024-03-25T07:34:25;100044.00;;;11.40;60.25
75585;BME280;64162;53.508;10.476;2024-03-25T07:36:52;100037.31;;;11.75;60.13
75585;BME280;64162;53.508;10.476;2024-03-25T07:39:17;100036.41;;;12.39;58.13
75585;BME280;64162;53.508;10.476;2024-03-25T07:41:43;100037.16;;;11.97;59.70
75585;BME280;64162;53.508;10.476;2024-03-25T07:44:08;100042.03;;;11.71;60.47
75585;BME280;64162;53.508;10.476;2024-03-25T07:46:34;100037.84;;;11.55;62.46
75585;BME280;64162;53.508;10.476;2024-03-25T07:48:59;100044.44;;;11.73;61.00
75585;BME280;64162;53.508;10.476;2024-03-25T07:51:25;100052.50;;;12.14;60.96
75585;BME280;64162;53.508;10.476;2024-03-25T07:53:51;100046.97;;;11.81;60.27
75585;BME280;64162;53.508;10.476;2024-03-25T07:56:17;100055.34;;;11.53;59.84
75585;BME280;64162;53.508;10.476;2024-03-25T07:58:42;100049.16;;;11.98;60.58
75585;BME280;64162;53.508;10.476;2024-03-25T08:01:08;100045.69;;;11.47;61.71
75585;BME280;64162;53.508;10.476;2024-03-25T08:03:33;100056.09;;;11.77;61.65
75585;BME280;64162;53.508;10.476;2024-03-25T08:05:59;100057.09;;;10.71;62.63
75585;BME280;64162;53.508;10.476;2024-03-25T08:08:25;100044.81;;;11.55;61.81
75585;BME280;64162;53.508;10.476;2024-03-25T08:10:51;100056.69;;;11.49;62.06
75585;BME280;64162;53.508;10.476;2024-03-25T08:13:18;100047.28;;;11.48;61.58
75585;BME280;64162;53.508;10.476;2024-03-25T08:15:45;100057.75;;;11.99;61.78
75585;BME280;64162;53.508;10.476;2024-03-25T08:18:11;100053.94;;;11.51;61.83
75585;BME280;64162;53.508;10.476;2024-03-25T08:20:37;100061.81;;;11.87;61.62
75585;BME280;64162;53.508;10.476;2024-03-25T08:23:03;100071.41;;;12.43;61.03
75585;BME280;64162;53.508;10.476;2024-03-25T08:25:28;100072.13;;;12.37;60.32
75585;BME280;64162;53.508;10.476;2024-03-25T08:27:54;100071.09;;;12.53;59.67
75585;BME280;64162;53.508;10.476;2024-03-25T08:30:20;100076.22;;;12.25;60.33
75585;BME280;64162;53.508;10.476;2024-03-25T08:32:45;100075.78;;;12.64;59.53
75585;BME280;64162;53.508;10.476;2024-03-25T08:35:11;100072.63;;;11.61;61.09
75585;BME280;64162;53.508;10.476;2024-03-25T08:37:36;100076.88;;;11.69;59.81
75585;BME280;64162;53.508;10.476;2024-03-25T08:40:02;100079.13;;;11.72;61.62
75585;BME280;64162;53.508;10.476;2024-03-25T08:42:29;100086.00;;;12.09;60.39
75585;BME280;64162;53.508;10.476;2024-03-25T08:44:55;100066.09;;;11.80;60.28
75585;BME280;64162;53.508;10.476;2024-03-25T08:47:20;100096.00;;;12.26;57.93
75585;BME280;64162;53.508;10.476;2024-03-25T08:49:46;100082.84;;;11.10;60.64
75585;BME280;64162;53.508;10.476;2024-03-25T08:52:12;100077.44;;;11.35;60.41
75585;BME280;64162;53.508;10.476;2024-03-25T08:54:37;100082.72;;;12.78;56.25
75585;BME280;64162;53.508;10.476;2024-03-25T08:57:03;100093.13;;;12.21;58.12
75585;BME280;64162;53.508;10.476;2024-03-25T08:59:29;100088.00;;;11.77;60.53
75585;BME280;64162;53.508;10.476;2024-03-25T09:01:55;100083.81;;;11.91;58.90
75585;BME280;64162;53.508;10.476;2024-03-25T09:04:21;100082.50;;;12.16;58.54
75585;BME280;64162;53.508;10.476;2024-03-25T09:06:46;100094.72;;;12.79;56.91
75585;BME280;64162;53.508;10.476;2024-03-25T09:09:13;100083.25;;;12.53;56.95
75585;BME280;64162;53.508;10.476;2024-03-25T09:11:57;100101.28;;;12.75;57.94
75585;BME280;64162;53.508;10.476;2024-03-25T09:14:23;100092.19;;;11.78;58.96
75585;BME280;64162;53.508;10.476;2024-03-25T09:16:48;100101.19;;;12.26;56.91
75585;BME280;64162;53.508;10.476;2024-03-25T09:19:14;100108.00;;;11.39;58.55
75585;BME280;64162;53.508;10.476;2024-03-25T09:21:39;100110.63;;;12.70;58.80
75585;BME280;64162;53.508;10.476;2024-03-25T09:24:05;100103.34;;;12.44;58.18
75585;BME280;64162;53.508;10.476;2024-03-25T09:26:31;100103.56;;;12.85;57.06
75585;BME280;64162;53.508;10.476;2024-03-25T09:28:57;100113.06;;;12.78;56.11
75585;BME280;64162;53.508;10.476;2024-03-25T09:31:22;100102.81;;;12.48;56.15
75585;BME280;64162;53.508;10.476;2024-03-25T09:33:48;100107.19;;;12.12;57.34
75585;BME280;64162;53.508;10.476;2024-03-25T09:36:13;100110.72;;;12.40;57.86
75585;BME280;64162;53.508;10.476;2024-03-25T09:38:39;100111.56;;;12.47;58.16
75585;BME280;64162;53.508;10.476;2024-03-25T09:41:04;100099.44;;;13.12;58.68
75585;BME280;64162;53.508;10.476;2024-03-25T09:43:46;100115.22;;;12.53;54.84
75585;BME280;64162;53.508;10.476;2024-03-25T09:46:13;100096.16;;;12.61;54.63
75585;BME280;64162;53.508;10.476;2024-03-25T09:48:39;100112.00;;;12.87;55.63
75585;BME280;64162;53.508;10.476;2024-03-25T09:51:07;100110.84;;;12.54;56.27
75585;BME280;64162;53.508;10.476;2024-03-25T09:53:36;100108.44;;;12.95;56.46
75585;BME280;64162;53.508;10.476;2024-03-25T09:56:01;100106.72;;;13.02;55.13
75585;BME280;64162;53.508;10.476;2024-03-25T09:58:28;100117.28;;;12.79;54.87
75585;BME280;64162;53.508;10.476;2024-03-25T10:00:54;100118.03;;;12.94;56.36
75585;BME280;64162;53.508;10.476;2024-03-25T10:03:21;100121.94;;;13.26;55.06
75585;BME280;64162;53.508;10.476;2024-03-25T10:05:46;100127.34;;;13.59;55.45
75585;BME280;64162;53.508;10.476;2024-03-25T10:08:12;100116.31;;;12.80;56.22
75585;BME280;64162;53.508;10.476;2024-03-25T10:10:38;100125.69;;;12.60;57.37
75585;BME280;64162;53.508;10.476;2024-03-25T10:13:04;100113.84;;;12.72;58.01
75585;BME280;64162;53.508;10.476;2024-03-25T10:15:32;100123.84;;;12.75;57.93
75585;BME280;64162;53.508;10.476;2024-03-25T10:17:58;100114.50;;;12.80;54.96
75585;BME280;64162;53.508;10.476;2024-03-25T10:20:23;100113.97;;;12.85;56.10
75585;BME280;64162;53.508;10.476;2024-03-25T10:22:49;100119.03;;;12.72;54.79
75585;BME280;64162;53.508;10.476;2024-03-25T10:25:29;100114.94;;;12.63;55.20
75585;BME280;64162;53.508;10.476;2024-03-25T10:27:59;100102.00;;;12.90;55.51
75585;BME280;64162;53.508;10.476;2024-03-25T10:30:29;100106.50;;;13.24;55.54
75585;BME280;64162;53.508;10.476;2024-03-25T10:33:05;100105.91;;;12.80;55.69
75585;BME280;64162;53.508;10.476;2024-03-25T10:35:35;100106.09;;;12.78;54.41
75585;BME280;64162;53.508;10.476;2024-03-25T10:38:07;100099.09;;;14.38;52.71
75585;BME280;64162;53.508;10.476;2024-03-25T10:40:35;100110.59;;;13.68;54.45
75585;BME280;64162;53.508;10.476;2024-03-25T10:45:30;100113.63;;;14.12;51.44
75585;BME280;64162;53.508;10.476;2024-03-25T10:48:03;100103.66;;;13.19;51.14
75585;BME280;64162;53.508;10.476;2024-03-25T10:50:31;100108.03;;;13.40;50.60
75585;BME280;64162;53.508;10.476;2024-03-25T10:52:58;100119.88;;;12.58;52.51
75585;BME280;64162;53.508;10.476;2024-03-25T10:55:26;100113.47;;;13.17;51.49
75585;BME280;64162;53.508;10.476;2024-03-25T10:57:54;100120.84;;;13.42;49.79
75585;BME280;64162;53.508;10.476;2024-03-25T11:00:22;100131.19;;;13.63;49.31
75585;BME280;64162;53.508;10.476;2024-03-25T11:02:48;100129.44;;;13.14;51.89
75585;BME280;64162;53.508;10.476;2024-03-25T11:05:15;100127.09;;;12.77;51.94
75585;BME280;64162;53.508;10.476;2024-03-25T11:07:41;100136.72;;;13.53;49.17
75585;BME280;64162;53.508;10.476;2024-03-25T11:10:09;100135.13;;;12.82;51.64
75585;BME280;64162;53.508;10.476;2024-03-25T11:12:36;100144.41;;;12.91;49.46
75585;BME280;64162;53.508;10.476;2024-03-25T11:15:04;100123.44;;;12.71;52.22
75585;BME280;64162;53.508;10.476;2024-03-25T11:17:30;100133.50;;;12.81;49.76
75585;BME280;64162;53.508;10.476;2024-03-25T11:20:11;100144.25;;;12.99;50.17
75585;BME280;64162;53.508;10.476;2024-03-25T11:22:51;100139.53;;;13.86;50.54
75585;BME280;64162;53.508;10.476;2024-03-25T11:25:17;100118.53;;;13.60;48.98
75585;BME280;64162;53.508;10.476;2024-03-25T11:27:44;100127.75;;;13.07;50.47
75585;BME280;64162;53.508;10.476;2024-03-25T11:30:13;100131.34;;;13.06;49.51
75585;BME280;64162;53.508;10.476;2024-03-25T11:32:51;100130.41;;;12.92;49.33
75585;BME280;64162;53.508;10.476;2024-03-25T11:35:18;100134.09;;;13.47;47.53
75585;BME280;64162;53.508;10.476;2024-03-25T11:37:44;100129.91;;;13.52;49.80
75585;BME280;64162;53.508;10.476;2024-03-25T11:40:10;100119.50;;;13.24;48.63
75585;BME280;64162;53.508;10.476;2024-03-25T11:42:43;100120.84;;;12.71;47.52
75585;BME280;64162;53.508;10.476;2024-03-25T11:45:19;100120.09;;;13.48;47.58
75585;BME280;64162;53.508;10.476;2024-03-25T11:47:47;100113.50;;;13.86;47.07
75585;BME280;64162;53.508;10.476;2024-03-25T11:50:15;100115.41;;;13.71;47.18
75585;BME280;64162;53.508;10.476;2024-03-25T11:52:41;100100.22;;;13.74;46.62
75585;BME280;64162;53.508;10.476;2024-03-25T11:55:07;100108.41;;;13.71;46.29
75585;BME280;64162;53.508;10.476;2024-03-25T11:57:34;100109.16;;;14.00;46.13
75585;BME280;64162;53.508;10.476;2024-03-25T12:00:00;100103.75;;;13.60;46.85
75585;BME280;64162;53.508;10.476;2024-03-25T12:02:26;100109.50;;;13.90;47.25
75585;BME280;64162;53.508;10.476;2024-03-25T12:04:52;100104.78;;;14.13;46.87
75585;BME280;64162;53.508;10.476;2024-03-25T12:07:18;100111.06;;;13.78;46.53
75585;BME280;64162;53.508;10.476;2024-03-25T12:09:43;100104.31;;;13.90;46.63
75585;BME280;64162;53.508;10.476;2024-03-25T12:12:28;100102.22;;;13.72;45.94
75585;BME280;64162;53.508;10.476;2024-03-25T12:14:54;100109.72;;;13.54;47.64
75585;BME280;64162;53.508;10.476;2024-03-25T12:17:21;100109.72;;;13.26;46.61
75585;BME280;64162;53.508;10.476;2024-03-25T12:20:04;100109.34;;;13.57;46.98
75585;BME280;64162;53.508;10.476;2024-03-25T12:22:31;100115.03;;;13.74;46.66
75585;BME280;64162;53.508;10.476;2024-03-25T12:24:59;100111.59;;;12.90;46.62
75585;BME280;64162;53.508;10.476;2024-03-25T12:27:25;100110.34;;;13.07;48.24
75585;BME280;64162;53.508;10.476;2024-03-25T12:30:02;100105.00;;;13.37;48.54
75585;BME280;64162;53.508;10.476;2024-03-25T12:32:31;100115.34;;;13.92;46.97
75585;BME280;64162;53.508;10.476;2024-03-25T12:34:58;100110.78;;;13.32;46.12
75585;BME280;64162;53.508;10.476;2024-03-25T12:37:26;100118.66;;;13.17;48.03
75585;BME280;64162;53.508;10.476;2024-03-25T12:39:51;100109.53;;;13.97;44.83
75585;BME280;64162;53.508;10.476;2024-03-25T12:42:17;100108.66;;;13.42;44.43
75585;BME280;64162;53.508;10.476;2024-03-25T12:44:43;100110.47;;;13.48;46.21